sensor_id;sensor_type;location;lat;lon;timestamp;pressure;altitude;pressure_sealevel;temperature;humidity
60319;BME280;46163;52.306;5.634;2023-11-21T00:00:00;100940.91;;;6.20;100.00
60319;BME280;46163;52.306;5.634;2023-11-21T00:02:26;100946.66;;;6.24;100.00
60319;BME280;46163;52.306;5.634;2023-11-21T00:04:52;100928.88;;;6.18;100.00
60319;BME280;46163;52.306;5.634;2023-11-21T00:07:18;100949.47;;;6.31;100.00
60319;BME280;46163;52.306;5.634;2023-11-21T00:09:44;100934.44;;;6.23;100.00
60319;BME280;46163;52.306;5.634;2023-11-21T00:12:09;100952.75;;;6.33;100.00
60319;BME280;46163;52.306;5.634;2023-11-21T00:14:39;100946.31;;;6.35;100.00
60319;BME280;46163;52.306;5.634;2023-11-21T00:17:05;100951.94;;;6.32;100.00
60319;BME280;46163;52.306;5.634;2023-11-21T00:19:31;100948.78;;;6.37;100.00
60319;BME280;46163;52.306;5.634;2023-11-21T00:21:56;100958.84;;;6.41;100.00
60319;BME280;46163;52.306;5.634;2023-11-21T00:24:23;100947.63;;;6.39;100.00
60319;BME280;46163;52.306;5.634;2023-11-21T00:26:50;100948.78;;;6.37;100.00
60319;BME280;46163;52.306;5.634;2023-11-21T00:29:15;100953.69;;;6.48;100.00
60319;BME280;46163;52.306;5.634;2023-11-21T00:31:43;100952.69;;;6.49;100.00
60319;BME280;46163;52.306;5.634;2023-11-21T00:34:10;100953.53;;;6.49;100.00
60319;BME280;46163;52.306;5.634;2023-11-21T00:36:36;100946.41;;;6.50;100.00
60319;BME280;46163;52.306;5.634;2023-11-21T00:39:02;100952.03;;;6.55;100.00
60319;BME280;46163;52.306;5.634;2023-11-21T00:41:27;100959.59;;;6.58;100.00
60319;BME280;46163;52.306;5.634;2023-11-21T00:43:53;100961.75;;;6.63;100.00
60319;BME280;46163;52.306;5.634;2023-11-21T00:46:20;100961.94;;;6.61;100.00
60319;BME280;46163;52.306;5.634;2023-11-21T00:48:46;100959.59;;;6.58;100.00
60319;BME280;46163;52.306;5.634;2023-11-21T00:51:12;100964.41;;;6.63;100.00
60319;BME280;46163;52.306;5.634;2023-11-21T00:53:37;100950.03;;;6.57;100.00
60319;BME280;46163;52.306;5.634;2023-11-21T00:56:03;100964.88;;;6.66;100.00
60319;BME280;46163;52.306;5.634;2023-11-21T00:58:28;100969.16;;;6.67;100.00
60319;BME280;46163;52.306;5.634;2023-11-21T01:00:55;100968.03;;;6.62;100.00
60319;BME280;46163;52.306;5.634;2023-11-21T01:03:21;100978.59;;;6.70;100.00
60319;BME280;46163;52.306;5.634;2023-11-21T01:05:47;100980.25;;;6.63;100.00
60319;BME280;46163;52.306;5.634;2023-11-21T01:08:15;100985.69;;;6.69;100.00
60319;BME280;46163;52.306;5.634;2023-11-21T01:10:40;100992.13;;;6.67;100.00
60319;BME280;46163;52.306;5.634;2023-11-21T01:13:06;100994.31;;;6.63;100.00
60319;BME280;46163;52.306;5.634;2023-11-21T01:15:33;100985.19;;;6.66;100.00
60319;BME280;46163;52.306;5.634;2023-11-21T01:17:58;101000.56;;;6.70;100.00
60319;BME280;46163;52.306;5.634;2023-11-21T01:20:24;101004.03;;;6.71;100.00
60319;BME280;46163;52.306;5.634;2023-11-21T01:22:49;101000.88;;;6.67;100.00
60319;BME280;46163;52.306;5.634;2023-11-21T01:25:15;100995.28;;;6.70;100.00
60319;BME280;46163;52.306;5.634;2023-11-21T01:27:42;101005.81;;;6.78;100.00
60319;BME280;46163;52.306;5.634;2023-11-21T01:30:08;101012.59;;;6.81;100.00
60319;BME280;46163;52.306;5.634;2023-11-21T01:32:36;101004.16;;;6.77;100.00
60319;BME280;46163;52.306;5.634;2023-11-21T01:35:02;101002.84;;;6.73;100.00
60319;BME280;46163;52.306;5.634;2023-11-21T01:37:28;101010.44;;;6.76;100.00
60319;BME280;46163;52.306;5.634;2023-11-21T01:39:54;100992.78;;;6.69;100.00
60319;BME280;46163;52.306;5.634;2023-11-21T01:42:22;101002.81;;;6.82;100.00
60319;BME280;46163;52.306;5.634;2023-11-21T01:44:48;101008.13;;;6.82;100.00
60319;BME280;46163;52.306;5.634;2023-11-21T01:47:14;101015.53;;;6.86;100.00
60319;BME280;46163;52.306;5.634;2023-11-21T01:49:43;101018.66;;;6.90;100.00
60319;BME280;46163;52.306;5.634;2023-11-21T01:52:09;101019.66;;;6.89;100.00
60319;BME280;46163;52.306;5.634;2023-11-21T01:54:36;101015.03;;;6.91;100.00
60319;BME280;46163;52.306;5.634;2023-11-21T01:57:03;101025.25;;;6.94;100.00
60319;BME280;46163;52.306;5.634;2023-11-21T01:59:35;101024.94;;;6.97;100.00
60319;BME280;46163;52.306;5.634;2023-11-21T02:02:05;101016.84;;;6.90;100.00
60319;BME280;46163;52.306;5.634;2023-11-21T02:04:35;101022.94;;;6.99;100.00
60319;BME280;46163;52.306;5.634;2023-11-21T02:07:02;101024.56;;;7.00;100.00
60319;BME280;46163;52.306;5.634;2023-11-21T02:09:31;101032.16;;;7.03;100.00
60319;BME280;46163;52.306;5.634;2023-11-21T02:12:00;101028.88;;;7.01;100.00
60319;BME280;46163;52.306;5.634;2023-11-21T02:14:26;101038.13;;;7.05;100.00
60319;BME280;46163;52.306;5.634;2023-11-21T02:16:53;101038.94;;;7.05;100.00
60319;BME280;46163;52.306;5.634;2023-11-21T02:19:21;101027.22;;;7.00;100.00
60319;BME280;46163;52.306;5.634;2023-11-21T02:21:53;101038.78;;;7.07;100.00
60319;BME280;46163;52.306;5.634;2023-11-21T02:24:23;101042.88;;;7.09;100.00
60319;BME280;46163;52.306;5.634;2023-11-21T02:26:49;101041.88;;;7.11;100.00
60319;BME280;46163;52.306;5.634;2023-11-21T02:29:21;101031.00;;;7.05;100.00
60319;BME280;46163;52.306;5.634;2023-11-21T02:31:48;101024.94;;;6.97;100.00
60319;BME280;46163;52.306;5.634;2023-11-21T02:34:15;101038.78;;;7.07;100.00
60319;BME280;46163;52.306;5.634;2023-11-21T02:36:41;101051.31;;;7.13;100.00
60319;BME280;46163;52.306;5.634;2023-11-21T02:39:07;101049.81;;;7.11;100.00
60319;BME280;46163;52.306;5.634;2023-11-21T02:41:33;101037.63;;;7.01;100.00
60319;BME280;46163;52.306;5.634;2023-11-21T02:43:59;101056.63;;;7.13;100.00
60319;BME280;46163;52.306;5.634;2023-11-21T02:46:25;101052.19;;;7.05;100.00
60319;BME280;46163;52.306;5.634;2023-11-21T02:48:50;101056.63;;;7.13;100.00
60319;BME280;46163;52.306;5.634;2023-11-21T02:51:16;101057.44;;;7.14;100.00
60319;BME280;46163;52.306;5.634;2023-11-21T02:53:41;101052.97;;;7.14;100.00
60319;BME280;46163;52.306;5.634;2023-11-21T02:56:07;101036.81;;;7.01;100.00
60319;BME280;46163;52.306;5.634;2023-11-21T02:58:33;101047.72;;;7.06;100.00
60319;BME280;46163;52.306;5.634;2023-11-21T03:00:58;101058.25;;;7.14;100.00
60319;BME280;46163;52.306;5.634;2023-11-21T03:03:24;101047.19;;;7.11;100.00
60319;BME280;46163;52.306;5.634;2023-11-21T03:05:49;101039.59;;;7.07;100.00
60319;BME280;46163;52.306;5.634;2023-11-21T03:08:15;101046.72;;;7.07;100.00
60319;BME280;46163;52.306;5.634;2023-11-21T03:10:40;101062.88;;;7.12;100.00
60319;BME280;46163;52.306;5.634;2023-11-21T03:13:06;101059.59;;;7.10;100.00
60319;BME280;46163;52.306;5.634;2023-11-21T03:15:31;101046.34;;;7.10;100.00
60319;BME280;46163;52.306;5.634;2023-11-21T03:17:58;101047.34;;;7.09;100.00
60319;BME280;46163;52.306;5.634;2023-11-21T03:20:24;101059.56;;;7.18;100.00
60319;BME280;46163;52.306;5.634;2023-11-21T03:22:49;101051.31;;;7.13;100.00
60319;BME280;46163;52.306;5.634;2023-11-21T03:25:15;101060.38;;;7.19;100.00
60319;BME280;46163;52.306;5.634;2023-11-21T03:27:42;101056.72;;;7.20;100.00
60319;BME280;46163;52.306;5.634;2023-11-21T03:30:09;101053.78;;;7.15;100.00
60319;BME280;46163;52.306;5.634;2023-11-21T03:32:34;101060.56;;;7.17;100.00
60319;BME280;46163;52.306;5.634;2023-11-21T03:35:00;101042.88;;;7.09;100.00
60319;BME280;46163;52.306;5.634;2023-11-21T03:37:26;101060.88;;;7.22;100.00
60319;BME280;46163;52.306;5.634;2023-11-21T03:39:52;101066.16;;;7.22;100.00
60319;BME280;46163;52.306;5.634;2023-11-21T03:42:18;101065.34;;;7.22;100.00
60319;BME280;46163;52.306;5.634;2023-11-21T03:44:43;101056.91;;;7.18;100.00
60319;BME280;46163;52.306;5.634;2023-11-21T03:47:09;101075.75;;;7.23;100.00
60319;BME280;46163;52.306;5.634;2023-11-21T03:49:35;101068.28;;;7.27;100.00
60319;BME280;46163;52.306;5.634;2023-11-21T03:52:00;101064.34;;;7.23;100.00
60319;BME280;46163;52.306;5.634;2023-11-21T03:54:26;101082.97;;;7.29;100.00
60319;BME280;46163;52.306;5.634;2023-11-21T03:56:51;101082.00;;;7.30;100.00
60319;BME280;46163;52.306;5.634;2023-11-21T03:59:17;101083.66;;;7.31;100.00
60319;BME280;46163;52.306;5.634;2023-11-21T04:01:42;101080.00;;;7.32;100.00
60319;BME280;46163;52.306;5.634;2023-11-21T04:04:08;101081.50;;;7.27;100.00
60319;BME280;46163;52.306;5.634;2023-11-21T04:06:33;101080.88;;;7.25;100.00
60319;BME280;46163;52.306;5.634;2023-11-21T04:08:59;101088.41;;;7.36;100.00
60319;BME280;46163;52.306;5.634;2023-11-21T04:11:24;101090.41;;;7.34;100.00
60319;BME280;46163;52.306;5.634;2023-11-21T04:13:50;101099.00;;;7.36;100.00
60319;BME280;46163;52.306;5.634;2023-11-21T04:16:15;101098.84;;;7.37;100.00
60319;BME280;46163;52.306;5.634;2023-11-21T04:18:41;101097.91;;;7.30;100.00
60319;BME280;46163;52.306;5.634;2023-11-21T04:21:07;101105.47;;;7.33;100.00
60319;BME280;46163;52.306;5.634;2023-11-21T04:23:33;101105.47;;;7.33;100.00
60319;BME280;46163;52.306;5.634;2023-11-21T04:25:59;101111.47;;;7.27;100.00
60319;BME280;46163;52.306;5.634;2023-11-21T04:28:24;101109.13;;;7.32;100.00
60319;BME280;46163;52.306;5.634;2023-11-21T04:30:50;101113.56;;;7.40;100.00
60319;BME280;46163;52.306;5.634;2023-11-21T04:33:15;101119.19;;;7.37;100.00
60319;BME280;46163;52.306;5.634;2023-11-21T04:35:41;101125.97;;;7.40;100.00
60319;BME280;46163;52.306;5.634;2023-11-21T04:38:07;101133.09;;;7.39;100.00
60319;BME280;46163;52.306;5.634;2023-11-21T04:40:32;101141.03;;;7.39;100.00
60319;BME280;46163;52.306;5.634;2023-11-21T04:42:57;101128.97;;;7.36;100.00
60319;BME280;46163;52.306;5.634;2023-11-21T04:45:23;101130.59;;;7.37;100.00
60319;BME280;46163;52.306;5.634;2023-11-21T04:47:48;101123.00;;;7.34;100.00
60319;BME280;46163;52.306;5.634;2023-11-21T04:50:14;101125.66;;;7.34;100.00
60319;BME280;46163;52.306;5.634;2023-11-21T04:52:40;101132.28;;;7.39;100.00
60319;BME280;46163;52.306;5.634;2023-11-21T04:55:05;101141.16;;;7.46;100.00
60319;BME280;46163;52.306;5.634;2023-11-21T04:57:35;101140.69;;;7.42;100.00
60319;BME280;46163;52.306;5.634;2023-11-21T05:00:00;101131.28;;;7.40;100.00
60319;BME280;46163;52.306;5.634;2023-11-21T05:02:26;101139.75;;;7.89;100.00
60319;BME280;46163;52.306;5.634;2023-11-21T05:04:52;101141.78;;;8.10;100.00
60319;BME280;46163;52.306;5.634;2023-11-21T05:07:22;101150.78;;;8.23;100.00
60319;BME280;46163;52.306;5.634;2023-11-21T05:09:54;101149.44;;;8.05;100.00
60319;BME280;46163;52.306;5.634;2023-11-21T05:12:21;101165.34;;;8.05;100.00
60319;BME280;46163;52.306;5.634;2023-11-21T05:14:48;101120.44;;;7.80;100.00
60319;BME280;46163;52.306;5.634;2023-11-21T05:17:14;101159.59;;;8.01;100.00
60319;BME280;46163;52.306;5.634;2023-11-21T05:19:39;101168.59;;;7.92;100.00
60319;BME280;46163;52.306;5.634;2023-11-21T05:22:06;101154.75;;;7.82;100.00
60319;BME280;46163;52.306;5.634;2023-11-21T05:24:33;101171.59;;;7.81;100.00
60319;BME280;46163;52.306;5.634;2023-11-21T05:26:58;101180.31;;;7.67;100.00
60319;BME280;46163;52.306;5.634;2023-11-21T05:29:24;101174.69;;;7.22;100.00
60319;BME280;46163;52.306;5.634;2023-11-21T05:31:50;101185.47;;;7.13;100.00
60319;BME280;46163;52.306;5.634;2023-11-21T05:34:16;101166.09;;;7.12;100.00
60319;BME280;46163;52.306;5.634;2023-11-21T05:36:43;101181.59;;;6.27;100.00
60319;BME280;46163;52.306;5.634;2023-11-21T05:39:11;101177.38;;;5.42;100.00
60319;BME280;46163;52.306;5.634;2023-11-21T05:41:37;101188.25;;;4.07;99.32
60319;BME280;46163;52.306;5.634;2023-11-21T05:44:02;101187.56;;;4.59;100.00
60319;BME280;46163;52.306;5.634;2023-11-21T05:46:28;101190.75;;;5.48;100.00
60319;BME280;46163;52.306;5.634;2023-11-21T05:48:53;101176.44;;;6.66;100.00
60319;BME280;46163;52.306;5.634;2023-11-21T05:51:20;101177.19;;;7.16;100.00
60319;BME280;46163;52.306;5.634;2023-11-21T05:53:45;101187.38;;;7.35;100.00
60319;BME280;46163;52.306;5.634;2023-11-21T05:56:11;101195.47;;;7.42;100.00
60319;BME280;46163;52.306;5.634;2023-11-21T05:58:37;101195.78;;;7.47;100.00
60319;BME280;46163;52.306;5.634;2023-11-21T06:01:05;101208.13;;;7.62;100.00
60319;BME280;46163;52.306;5.634;2023-11-21T06:03:32;101194.78;;;7.56;100.00
60319;BME280;46163;52.306;5.634;2023-11-21T06:05:58;101211.25;;;7.74;100.00
60319;BME280;46163;52.306;5.634;2023-11-21T06:08:23;101199.50;;;7.69;100.00
60319;BME280;46163;52.306;5.634;2023-11-21T06:10:50;101218.84;;;7.77;100.00
60319;BME280;46163;52.306;5.634;2023-11-21T06:13:15;101215.00;;;7.80;100.00
60319;BME280;46163;52.306;5.634;2023-11-21T06:15:41;101230.81;;;7.96;100.00
60319;BME280;46163;52.306;5.634;2023-11-21T06:18:07;101225.34;;;7.98;100.00
60319;BME280;46163;52.306;5.634;2023-11-21T06:20:35;101217.22;;;7.99;100.00
60319;BME280;46163;52.306;5.634;2023-11-21T06:23:02;101233.06;;;8.07;100.00
60319;BME280;46163;52.306;5.634;2023-11-21T06:25:29;101236.56;;;8.08;100.00
60319;BME280;46163;52.306;5.634;2023-11-21T06:27:54;101224.06;;;7.93;100.00
60319;BME280;46163;52.306;5.634;2023-11-21T06:30:21;101239.13;;;7.54;100.00
60319;BME280;46163;52.306;5.634;2023-11-21T06:32:48;101235.78;;;7.68;100.00
60319;BME280;46163;52.306;5.634;2023-11-21T06:35:15;101242.22;;;6.77;100.00
60319;BME280;46163;52.306;5.634;2023-11-21T06:37:41;101263.53;;;5.25;96.95
60319;BME280;46163;52.306;5.634;2023-11-21T06:40:07;101266.97;;;4.56;97.71
60319;BME280;46163;52.306;5.634;2023-11-21T06:42:33;101270.03;;;3.14;96.67
60319;BME280;46163;52.306;5.634;2023-11-21T06:45:03;101283.22;;;1.86;100.00
60319;BME280;46163;52.306;5.634;2023-11-21T06:47:29;101279.50;;;1.28;100.00
60319;BME280;46163;52.306;5.634;2023-11-21T06:49:55;101281.97;;;1.50;100.00
60319;BME280;46163;52.306;5.634;2023-11-21T06:52:21;101270.34;;;3.85;100.00
60319;BME280;46163;52.306;5.634;2023-11-21T06:54:47;101258.81;;;5.36;100.00
60319;BME280;46163;52.306;5.634;2023-11-21T06:57:14;101268.72;;;6.69;100.00
60319;BME280;46163;52.306;5.634;2023-11-21T06:59:40;101263.25;;;6.95;100.00
60319;BME280;46163;52.306;5.634;2023-11-21T07:02:06;101274.78;;;7.27;100.00
60319;BME280;46163;52.306;5.634;2023-11-21T07:04:35;101285.34;;;7.35;100.00
60319;BME280;46163;52.306;5.634;2023-11-21T07:07:02;101288.47;;;7.47;100.00
60319;BME280;46163;52.306;5.634;2023-11-21T07:09:27;101296.53;;;7.70;100.00
60319;BME280;46163;52.306;5.634;2023-11-21T07:11:53;101298.78;;;7.81;100.00
60319;BME280;46163;52.306;5.634;2023-11-21T07:14:19;101304.56;;;7.92;100.00
60319;BME280;46163;52.306;5.634;2023-11-21T07:16:45;101305.69;;;7.98;100.00
60319;BME280;46163;52.306;5.634;2023-11-21T07:19:11;101312.78;;;8.06;100.00
60319;BME280;46163;52.306;5.634;2023-11-21T07:21:38;101323.34;;;8.14;100.00
60319;BME280;46163;52.306;5.634;2023-11-21T07:24:07;101328.16;;;8.18;100.00
60319;BME280;46163;52.306;5.634;2023-11-21T07:26:34;101329.16;;;8.17;100.00
60319;BME280;46163;52.306;5.634;2023-11-21T07:29:00;101337.25;;;8.16;100.00
60319;BME280;46163;52.306;5.634;2023-11-21T07:31:26;101339.59;;;8.19;100.00
60319;BME280;46163;52.306;5.634;2023-11-21T07:33:52;101341.69;;;8.23;100.00
60319;BME280;46163;52.306;5.634;2023-11-21T07:36:19;101351.44;;;8.31;100.00
60319;BME280;46163;52.306;5.634;2023-11-21T07:38:46;101330.22;;;8.31;100.00
60319;BME280;46163;52.306;5.634;2023-11-21T07:41:12;101341.78;;;8.46;100.00
60319;BME280;46163;52.306;5.634;2023-11-21T07:43:41;101340.47;;;8.42;100.00
60319;BME280;46163;52.306;5.634;2023-11-21T07:46:07;101338.66;;;8.43;100.00
60319;BME280;46163;52.306;5.634;2023-11-21T07:48:33;101363.34;;;8.52;100.00
60319;BME280;46163;52.306;5.634;2023-11-21T07:51:00;101359.00;;;8.50;100.00
60319;BME280;46163;52.306;5.634;2023-11-21T07:53:26;101366.13;;;8.50;100.00
60319;BME280;46163;52.306;5.634;2023-11-21T07:55:54;101362.16;;;8.54;100.00
60319;BME280;46163;52.306;5.634;2023-11-21T07:58:20;101372.72;;;8.62;100.00
60319;BME280;46163;52.306;5.634;2023-11-21T08:00:46;101377.53;;;8.59;100.00
60319;BME280;46163;52.306;5.634;2023-11-21T08:03:13;101385.66;;;8.57;100.00
60319;BME280;46163;52.306;5.634;2023-11-21T08:05:39;101384.66;;;8.58;100.00
60319;BME280;46163;52.306;5.634;2023-11-21T08:08:05;101388.91;;;8.67;100.00
60319;BME280;46163;52.306;5.634;2023-11-21T08:10:30;101385.72;;;8.49;100.00
60319;BME280;46163;52.306;5.634;2023-11-21T08:12:56;101383.78;;;8.66;100.00
60319;BME280;46163;52.306;5.634;2023-11-21T08:15:22;101409.72;;;8.87;100.00
60319;BME280;46163;52.306;5.634;2023-11-21T08:17:48;101405.50;;;8.69;100.00
60319;BME280;46163;52.306;5.634;2023-11-21T08:20:13;101407.00;;;8.72;100.00
60319;BME280;46163;52.306;5.634;2023-11-21T08:22:44;101416.91;;;8.78;100.00
60319;BME280;46163;52.306;5.634;2023-11-21T08:25:10;101431.47;;;8.82;100.00
60319;BME280;46163;52.306;5.634;2023-11-21T08:27:36;101444.66;;;8.98;100.00
60319;BME280;46163;52.306;5.634;2023-11-21T08:30:05;101447.44;;;9.05;100.00
60319;BME280;46163;52.306;5.634;2023-11-21T08:32:32;101449.00;;;8.91;100.00
60319;BME280;46163;52.306;5.634;2023-11-21T08:35:01;101458.97;;;8.89;100.00
60319;BME280;46163;52.306;5.634;2023-11-21T08:37:27;101451.41;;;8.78;100.00
60319;BME280;46163;52.306;5.634;2023-11-21T08:39:57;101466.06;;;8.97;100.00
60319;BME280;46163;52.306;5.634;2023-11-21T08:42:23;101463.78;;;8.86;100.00
60319;BME280;46163;52.306;5.634;2023-11-21T08:44:48;101464.72;;;9.01;100.00
60319;BME280;46163;52.306;5.634;2023-11-21T08:47:14;101462.41;;;9.21;100.00
60319;BME280;46163;52.306;5.634;2023-11-21T08:49:39;101459.06;;;9.27;100.00
60319;BME280;46163;52.306;5.634;2023-11-21T08:52:05;101456.97;;;9.22;100.00
60319;BME280;46163;52.306;5.634;2023-11-21T08:54:31;101471.81;;;9.09;100.00
60319;BME280;46163;52.306;5.634;2023-11-21T08:56:57;101463.56;;;9.03;100.00
60319;BME280;46163;52.306;5.634;2023-11-21T08:59:26;101457.56;;;9.01;100.00
60319;BME280;46163;52.306;5.634;2023-11-21T09:01:52;101490.09;;;9.03;100.00
60319;BME280;46163;52.306;5.634;2023-11-21T09:04:17;101501.06;;;9.00;100.00
60319;BME280;46163;52.306;5.634;2023-11-21T09:06:43;101507.38;;;8.99;100.00
60319;BME280;46163;52.306;5.634;2023-11-21T09:09:08;101510.88;;;8.92;100.00
60319;BME280;46163;52.306;5.634;2023-11-21T09:11:36;101515.53;;;8.90;100.00
60319;BME280;46163;52.306;5.634;2023-11-21T09:14:02;101520.88;;;8.82;100.00
60319;BME280;46163;52.306;5.634;2023-11-21T09:16:28;101526.19;;;8.82;100.00
60319;BME280;46163;52.306;5.634;2023-11-21T09:18:54;101526.38;;;8.80;100.00
60319;BME280;46163;52.306;5.634;2023-11-21T09:21:19;101519.09;;;8.74;100.00
60319;BME280;46163;52.306;5.634;2023-11-21T09:23:45;101544.78;;;8.82;100.00
60319;BME280;46163;52.306;5.634;2023-11-21T09:26:11;101534.00;;;8.75;100.00
60319;BME280;46163;52.306;5.634;2023-11-21T09:28:37;101553.56;;;8.82;100.00
60319;BME280;46163;52.306;5.634;2023-11-21T09:31:07;101559.22;;;8.79;100.00
60319;BME280;46163;52.306;5.634;2023-11-21T09:33:34;101549.59;;;8.86;100.00
60319;BME280;46163;52.306;5.634;2023-11-21T09:36:00;101545.78;;;8.81;100.00
60319;BME280;46163;52.306;5.634;2023-11-21T09:38:26;101555.19;;;8.91;100.00
60319;BME280;46163;52.306;5.634;2023-11-21T09:40:54;101549.41;;;8.88;100.00
60319;BME280;46163;52.306;5.634;2023-11-21T09:43:20;101554.50;;;8.97;100.00
60319;BME280;46163;52.306;5.634;2023-11-21T09:45:54;101579.44;;;8.88;100.00
60319;BME280;46163;52.306;5.634;2023-11-21T09:48:20;101582.03;;;9.04;100.00
60319;BME280;46163;52.306;5.634;2023-11-21T09:50:47;101555.88;;;8.85;100.00
60319;BME280;46163;52.306;5.634;2023-11-21T09:53:19;101589.69;;;8.91;100.00
60319;BME280;46163;52.306;5.634;2023-11-21T09:55:53;101596.00;;;8.90;100.00
60319;BME280;46163;52.306;5.634;2023-11-21T09:58:19;101590.06;;;8.88;100.00
60319;BME280;46163;52.306;5.634;2023-11-21T10:00:46;101591.88;;;8.88;100.00
60319;BME280;46163;52.306;5.634;2023-11-21T10:03:12;101597.38;;;8.86;100.00
60319;BME280;46163;52.306;5.634;2023-11-21T10:05:39;101597.66;;;8.91;100.00
60319;BME280;46163;52.306;5.634;2023-11-21T10:08:08;101601.78;;;9.02;100.00
60319;BME280;46163;52.306;5.634;2023-11-21T10:10:38;101608.25;;;8.99;100.00
60319;BME280;46163;52.306;5.634;2023-11-21T10:13:11;101615.06;;;8.94;100.00
60319;BME280;46163;52.306;5.634;2023-11-21T10:15:37;101608.81;;;8.87;100.00
60319;BME280;46163;52.306;5.634;2023-11-21T10:18:04;101613.38;;;9.01;100.00
60319;BME280;46163;52.306;5.634;2023-11-21T10:20:34;101624.50;;;9.04;100.00
60319;BME280;46163;52.306;5.634;2023-11-21T10:23:03;101631.47;;;9.05;100.00
60319;BME280;46163;52.306;5.634;2023-11-21T10:25:29;101636.63;;;8.99;100.00
60319;BME280;46163;52.306;5.634;2023-11-21T10:28:01;101636.31;;;8.94;100.00
60319;BME280;46163;52.306;5.634;2023-11-21T10:30:32;101648.75;;;8.93;100.00
60319;BME280;46163;52.306;5.634;2023-11-21T10:32:59;101638.88;;;9.18;100.00
60319;BME280;46163;52.306;5.634;2023-11-21T10:38:06;101648.06;;;9.07;100.00
60319;BME280;46163;52.306;5.634;2023-11-21T10:40:37;101659.72;;;8.98;100.00
60319;BME280;46163;52.306;5.634;2023-11-21T10:43:08;101649.44;;;8.87;100.00
60319;BME280;46163;52.306;5.634;2023-11-21T10:45:36;101667.28;;;9.18;100.00
60319;BME280;46163;52.306;5.634;2023-11-21T10:48:05;101679.28;;;8.97;100.00
60319;BME280;46163;52.306;5.634;2023-11-21T10:50:34;101681.78;;;8.91;100.00
60319;BME280;46163;52.306;5.634;2023-11-21T10:53:02;101679.31;;;8.81;100.00
60319;BME280;46163;52.306;5.634;2023-11-21T10:55:31;101681.28;;;8.95;100.00
60319;BME280;46163;52.306;5.634;2023-11-21T10:58:02;101691.56;;;8.98;100.00
60319;BME280;46163;52.306;5.634;2023-11-21T11:00:29;101699.34;;;9.00;100.00
60319;BME280;46163;52.306;5.634;2023-11-21T11:02:55;101685.09;;;8.85;100.00
60319;BME280;46163;52.306;5.634;2023-11-21T11:05:22;101692.41;;;8.83;100.00
60319;BME280;46163;52.306;5.634;2023-11-21T11:07:59;101690.94;;;8.88;100.00
60319;BME280;46163;52.306;5.634;2023-11-21T11:10:27;101689.56;;;8.92;100.00
60319;BME280;46163;52.306;5.634;2023-11-21T11:12:54;101701.34;;;8.98;100.00
60319;BME280;46163;52.306;5.634;2023-11-21T11:15:21;101695.53;;;8.94;100.00
60319;BME280;46163;52.306;5.634;2023-11-21T11:17:48;101692.22;;;9.00;100.00
60319;BME280;46163;52.306;5.634;2023-11-21T11:20:15;101694.22;;;8.98;100.00
60319;BME280;46163;52.306;5.634;2023-11-21T11:29:23;101720.09;;;9.13;100.00
60319;BME280;46163;52.306;5.634;2023-11-21T11:34:30;101718.91;;;9.15;100.00
60319;BME280;46163;52.306;5.634;2023-11-21T11:37:07;101723.41;;;9.06;100.00
60319;BME280;46163;52.306;5.634;2023-11-21T11:39:41;101730.19;;;9.17;100.00
60319;BME280;46163;52.306;5.634;2023-11-21T11:42:12;101722.75;;;9.13;100.00
60319;BME280;46163;52.306;5.634;2023-11-21T11:47:32;101726.22;;;9.13;100.00
60319;BME280;46163;52.306;5.634;2023-11-21T11:50:12;101738.69;;;9.04;100.00
60319;BME280;46163;52.306;5.634;2023-11-21T11:52:49;101734.34;;;9.12;100.00
60319;BME280;46163;52.306;5.634;2023-11-21T11:55:17;101745.31;;;8.92;100.00
60319;BME280;46163;52.306;5.634;2023-11-21T11:57:44;101743.19;;;9.04;100.00
60319;BME280;46163;52.306;5.634;2023-11-21T12:00:19;101741.84;;;8.92;100.00
60319;BME280;46163;52.306;5.634;2023-11-21T12:02:51;101753.44;;;9.07;100.00
60319;BME280;46163;52.306;5.634;2023-11-21T12:05:18;101745.31;;;9.00;100.00
60319;BME280;46163;52.306;5.634;2023-11-21T12:07:51;101765.25;;;9.13;100.00
60319;BME280;46163;52.306;5.634;2023-11-21T12:10:20;101762.53;;;9.21;100.00
60319;BME280;46163;52.306;5.634;2023-11-21T12:13:08;101769.84;;;9.27;100.00
60319;BME280;46163;52.306;5.634;2023-11-21T12:15:34;101769.53;;;9.14;100.00
60319;BME280;46163;52.306;5.634;2023-11-21T12:18:00;101774.84;;;9.14;100.00
60319;BME280;46163;52.306;5.634;2023-11-21T12:20:27;101768.91;;;9.03;100.00
60319;BME280;46163;52.306;5.634;2023-11-21T12:22:53;101770.69;;;9.03;100.00
60319;BME280;46163;52.306;5.634;2023-11-21T12:25:24;101768.53;;;9.15;100.00
60319;BME280;46163;52.306;5.634;2023-11-21T12:27:52;101775.19;;;9.11;100.00
60319;BME280;46163;52.306;5.634;2023-11-21T12:30:22;101785.63;;;9.20;100.00
60319;BME280;46163;52.306;5.634;2023-11-21T12:32:53;101773.88;;;8.98;100.00
60319;BME280;46163;52.306;5.634;2023-11-21T12:35:20;101785.16;;;9.00;100.00
60319;BME280;46163;52.306;5.634;2023-11-21T12:37:47;101786.13;;;9.07;100.00
60319;BME280;46163;52.306;5.634;2023-11-21T12:40:13;101777.81;;;9.19;100.00
60319;BME280;46163;52.306;5.634;2023-11-21T12:42:47;101780.31;;;9.20;100.00
60319;BME280;46163;52.306;5.634;2023-11-21T12:47:56;101778.81;;;9.18;100.00
60319;BME280;46163;52.306;5.634;2023-11-21T12:50:26;101782.31;;;9.10;100.00
60319;BME280;46163;52.306;5.634;2023-11-21T12:53:02;101783.66;;;9.14;100.00
60319;BME280;46163;52.306;5.634;2023-11-21T12:55:33;101783.66;;;8.98;100.00
60319;BME280;46163;52.306;5.634;2023-11-21T12:58:04;101777.69;;;9.04;100.00
60319;BME280;46163;52.306;5.634;2023-11-21T13:00:46;101799.41;;;9.16;100.00
60319;BME280;46163;52.306;5.634;2023-11-21T13:03:14;101804.72;;;9.32;100.00
60319;BME280;46163;52.306;5.634;2023-11-21T13:05:45;101812.22;;;9.12;100.00